sensor_id;sensor_type;location;lat;lon;timestamp;P1;durP1;ratioP1;P2;durP2;ratioP2
49820;SDS011;36893;52.520;13.450;2022-12-05T00:03:25;21.05;;;9.93;;
49820;SDS011;36893;52.520;13.450;2022-12-05T00:13:26;16.20;;;9.27;;
49820;SDS011;36893;52.520;13.450;2022-12-05T00:23:27;17.13;;;8.87;;
49820;SDS011;36893;52.520;13.450;2022-12-05T00:33:27;17.33;;;9.10;;
49820;SDS011;36893;52.520;13.450;2022-12-05T00:43:28;16.30;;;8.93;;
49820;SDS011;36893;52.520;13.450;2022-12-05T00:53:29;14.93;;;8.37;;
49820;SDS011;36893;52.520;13.450;2022-12-05T01:03:30;19.67;;;9.18;;
49820;SDS011;36893;52.520;13.450;2022-12-05T01:13:31;18.10;;;8.63;;
49820;SDS011;36893;52.520;13.450;2022-12-05T01:23:32;13.95;;;7.30;;
49820;SDS011;36893;52.520;13.450;2022-12-05T01:33:33;12.13;;;7.17;;
49820;SDS011;36893;52.520;13.450;2022-12-05T01:43:52;14.70;;;7.75;;
49820;SDS011;36893;52.520;13.450;2022-12-05T01:54:04;15.73;;;6.82;;
49820;SDS011;36893;52.520;13.450;2022-12-05T02:04:06;13.30;;;8.15;;
49820;SDS011;36893;52.520;13.450;2022-12-05T02:24:54;12.68;;;6.88;;
49820;SDS011;36893;52.520;13.450;2022-12-05T02:36:04;10.77;;;6.32;;
49820;SDS011;36893;52.520;13.450;2022-12-05T02:46:12;15.32;;;7.18;;
49820;SDS011;36893;52.520;13.450;2022-12-05T02:56:17;12.13;;;7.22;;
49820;SDS011;36893;52.520;13.450;2022-12-05T03:06:20;12.50;;;6.55;;
49820;SDS011;36893;52.520;13.450;2022-12-05T03:16:32;14.00;;;6.93;;
49820;SDS011;36893;52.520;13.450;2022-12-05T03:37:20;12.45;;;6.47;;
49820;SDS011;36893;52.520;13.450;2022-12-05T03:47:58;10.52;;;6.68;;
49820;SDS011;36893;52.520;13.450;2022-12-05T03:58:07;9.77;;;5.60;;
49820;SDS011;36893;52.520;13.450;2022-12-05T04:08:35;11.98;;;5.85;;
49820;SDS011;36893;52.520;13.450;2022-12-05T04:18:41;11.73;;;5.95;;
49820;SDS011;36893;52.520;13.450;2022-12-05T04:38:58;17.85;;;6.63;;
49820;SDS011;36893;52.520;13.450;2022-12-05T04:49:05;13.18;;;6.47;;
49820;SDS011;36893;52.520;13.450;2022-12-05T04:59:09;18.02;;;7.05;;
49820;SDS011;36893;52.520;13.450;2022-12-05T05:09:10;12.40;;;6.38;;
49820;SDS011;36893;52.520;13.450;2022-12-05T05:19:11;13.60;;;6.37;;
49820;SDS011;36893;52.520;13.450;2022-12-05T05:29:11;11.30;;;6.07;;
49820;SDS011;36893;52.520;13.450;2022-12-05T05:39:13;11.27;;;5.05;;
49820;SDS011;36893;52.520;13.450;2022-12-05T05:49:14;10.07;;;5.25;;
49820;SDS011;36893;52.520;13.450;2022-12-05T05:59:15;9.00;;;4.93;;
49820;SDS011;36893;52.520;13.450;2022-12-05T06:09:15;14.80;;;6.53;;
49820;SDS011;36893;52.520;13.450;2022-12-05T06:19:16;8.77;;;4.17;;
49820;SDS011;36893;52.520;13.450;2022-12-05T06:29:16;10.67;;;5.17;;
49820;SDS011;36893;52.520;13.450;2022-12-05T06:39:17;10.77;;;4.90;;
49820;SDS011;36893;52.520;13.450;2022-12-05T06:49:18;8.40;;;4.20;;
49820;SDS011;36893;52.520;13.450;2022-12-05T06:59:19;11.25;;;4.80;;
49820;SDS011;36893;52.520;13.450;2022-12-05T07:09:21;10.30;;;4.90;;
49820;SDS011;36893;52.520;13.450;2022-12-05T07:19:48;12.10;;;5.03;;
49820;SDS011;36893;52.520;13.450;2022-12-05T07:29:49;9.90;;;4.55;;
49820;SDS011;36893;52.520;13.450;2022-12-05T07:39:53;8.95;;;4.35;;
49820;SDS011;36893;52.520;13.450;2022-12-05T07:49:53;10.63;;;5.50;;
49820;SDS011;36893;52.520;13.450;2022-12-05T07:59:54;8.40;;;4.13;;
49820;SDS011;36893;52.520;13.450;2022-12-05T08:09:55;9.77;;;4.93;;
49820;SDS011;36893;52.520;13.450;2022-12-05T08:19:55;9.77;;;4.83;;
49820;SDS011;36893;52.520;13.450;2022-12-05T08:29:56;11.47;;;4.27;;
49820;SDS011;36893;52.520;13.450;2022-12-05T08:39:57;8.23;;;4.00;;
49820;SDS011;36893;52.520;13.450;2022-12-05T08:49:57;10.20;;;4.57;;
49820;SDS011;36893;52.520;13.450;2022-12-05T08:59:58;8.70;;;4.17;;
49820;SDS011;36893;52.520;13.450;2022-12-05T09:09:59;7.77;;;3.60;;
49820;SDS011;36893;52.520;13.450;2022-12-05T09:19:59;7.63;;;3.42;;
49820;SDS011;36893;52.520;13.450;2022-12-05T09:30:00;8.88;;;4.03;;
49820;SDS011;36893;52.520;13.450;2022-12-05T09:40:01;5.85;;;3.47;;
49820;SDS011;36893;52.520;13.450;2022-12-05T09:50:13;11.93;;;4.45;;
49820;SDS011;36893;52.520;13.450;2022-12-05T10:00:22;7.35;;;4.30;;
49820;SDS011;36893;52.520;13.450;2022-12-05T10:10:28;6.55;;;3.20;;
49820;SDS011;36893;52.520;13.450;2022-12-05T10:21:19;6.85;;;3.83;;
49820;SDS011;36893;52.520;13.450;2022-12-05T10:31:30;6.43;;;3.17;;
49820;SDS011;36893;52.520;13.450;2022-12-05T10:41:34;6.28;;;3.10;;
49820;SDS011;36893;52.520;13.450;2022-12-05T10:51:34;6.27;;;3.30;;
49820;SDS011;36893;52.520;13.450;2022-12-05T11:01:35;8.27;;;3.88;;
49820;SDS011;36893;52.520;13.450;2022-12-05T11:11:37;6.47;;;3.22;;
49820;SDS011;36893;52.520;13.450;2022-12-05T11:21:41;8.23;;;3.20;;
49820;SDS011;36893;52.520;13.450;2022-12-05T11:31:42;7.87;;;3.77;;
49820;SDS011;36893;52.520;13.450;2022-12-05T11:42:05;7.10;;;3.42;;
49820;SDS011;36893;52.520;13.450;2022-12-05T12:24:19;8.60;;;4.10;;
49820;SDS011;36893;52.520;13.450;2022-12-05T12:35:00;5.68;;;3.13;;
49820;SDS011;36893;52.520;13.450;2022-12-05T12:45:26;5.88;;;3.72;;
49820;SDS011;36893;52.520;13.450;2022-12-05T13:06:02;5.50;;;2.90;;
49820;SDS011;36893;52.520;13.450;2022-12-05T13:16:36;6.10;;;2.70;;
49820;SDS011;36893;52.520;13.450;2022-12-05T13:36:45;8.90;;;2.90;;
49820;SDS011;36893;52.520;13.450;2022-12-05T13:47:04;7.70;;;2.50;;
49820;SDS011;36893;52.520;13.450;2022-12-05T13:57:42;7.93;;;3.17;;
49820;SDS011;36893;52.520;13.450;2022-12-05T14:07:56;8.13;;;2.95;;
49820;SDS011;36893;52.520;13.450;2022-12-05T14:28:37;6.50;;;2.67;;
49820;SDS011;36893;52.520;13.450;2022-12-05T14:39:18;6.35;;;2.75;;
49820;SDS011;36893;52.520;13.450;2022-12-05T15:00:30;5.72;;;2.90;;
49820;SDS011;36893;52.520;13.450;2022-12-05T15:10:32;7.85;;;2.97;;
49820;SDS011;36893;52.520;13.450;2022-12-05T15:20:41;6.03;;;2.75;;
49820;SDS011;36893;52.520;13.450;2022-12-05T15:30:55;6.18;;;2.75;;
49820;SDS011;36893;52.520;13.450;2022-12-05T15:40:56;7.53;;;2.88;;
49820;SDS011;36893;52.520;13.450;2022-12-05T15:50:57;4.87;;;2.23;;
49820;SDS011;36893;52.520;13.450;2022-12-05T16:11:20;6.22;;;2.60;;
49820;SDS011;36893;52.520;13.450;2022-12-05T16:21:28;6.05;;;2.83;;
49820;SDS011;36893;52.520;13.450;2022-12-05T16:31:36;6.72;;;2.75;;
49820;SDS011;36893;52.520;13.450;2022-12-05T16:41:38;5.82;;;2.72;;
49820;SDS011;36893;52.520;13.450;2022-12-05T16:51:39;6.32;;;2.67;;
49820;SDS011;36893;52.520;13.450;2022-12-05T17:01:43;7.17;;;2.77;;
49820;SDS011;36893;52.520;13.450;2022-12-05T17:11:44;6.37;;;3.00;;
49820;SDS011;36893;52.520;13.450;2022-12-05T17:21:49;7.25;;;2.55;;
49820;SDS011;36893;52.520;13.450;2022-12-05T17:31:50;5.75;;;2.88;;
49820;SDS011;36893;52.520;13.450;2022-12-05T17:41:50;6.37;;;2.87;;
49820;SDS011;36893;52.520;13.450;2022-12-05T17:51:51;5.03;;;2.40;;
49820;SDS011;36893;52.520;13.450;2022-12-05T18:01:53;6.35;;;2.80;;
49820;SDS011;36893;52.520;13.450;2022-12-05T18:12:06;4.80;;;2.42;;
49820;SDS011;36893;52.520;13.450;2022-12-05T18:22:07;5.75;;;2.63;;
49820;SDS011;36893;52.520;13.450;2022-12-05T18:32:08;9.13;;;3.00;;
49820;SDS011;36893;52.520;13.450;2022-12-05T18:42:08;6.30;;;2.27;;
49820;SDS011;36893;52.520;13.450;2022-12-05T18:52:10;6.38;;;3.42;;
49820;SDS011;36893;52.520;13.450;2022-12-05T19:02:10;6.45;;;2.17;;
49820;SDS011;36893;52.520;13.450;2022-12-05T19:12:14;5.53;;;2.03;;
49820;SDS011;36893;52.520;13.450;2022-12-05T19:22:14;7.43;;;2.75;;
49820;SDS011;36893;52.520;13.450;2022-12-05T19:32:15;8.10;;;3.10;;
49820;SDS011;36893;52.520;13.450;2022-12-05T19:42:16;5.57;;;2.40;;
49820;SDS011;36893;52.520;13.450;2022-12-05T19:52:17;8.15;;;2.50;;
49820;SDS011;36893;52.520;13.450;2022-12-05T20:02:17;8.10;;;3.13;;
49820;SDS011;36893;52.520;13.450;2022-12-05T20:12:18;4.93;;;2.67;;
49820;SDS011;36893;52.520;13.450;2022-12-05T20:22:19;7.38;;;2.75;;
49820;SDS011;36893;52.520;13.450;2022-12-05T20:32:20;7.60;;;2.93;;
49820;SDS011;36893;52.520;13.450;2022-12-05T20:42:20;7.10;;;3.17;;
49820;SDS011;36893;52.520;13.450;2022-12-05T20:52:21;6.17;;;2.63;;
49820;SDS011;36893;52.520;13.450;2022-12-05T21:02:22;7.80;;;2.53;;
49820;SDS011;36893;52.520;13.450;2022-12-05T21:12:22;6.77;;;2.33;;
49820;SDS011;36893;52.520;13.450;2022-12-05T21:22:23;4.70;;;2.43;;
49820;SDS011;36893;52.520;13.450;2022-12-05T21:32:24;6.75;;;2.75;;
49820;SDS011;36893;52.520;13.450;2022-12-05T21:42:25;7.83;;;2.37;;
49820;SDS011;36893;52.520;13.450;2022-12-05T21:52:26;8.07;;;3.08;;
49820;SDS011;36893;52.520;13.450;2022-12-05T22:02:26;4.90;;;2.53;;
49820;SDS011;36893;52.520;13.450;2022-12-05T22:12:27;6.53;;;2.37;;
49820;SDS011;36893;52.520;13.450;2022-12-05T22:22:28;4.43;;;2.23;;
49820;SDS011;36893;52.520;13.450;2022-12-05T22:32:28;7.13;;;2.80;;
49820;SDS011;36893;52.520;13.450;2022-12-05T22:42:29;6.30;;;2.90;;
49820;SDS011;36893;52.520;13.450;2022-12-05T22:52:30;8.67;;;3.13;;
49820;SDS011;36893;52.520;13.450;2022-12-05T23:02:30;6.20;;;2.50;;
49820;SDS011;36893;52.520;13.450;2022-12-05T23:12:31;6.47;;;3.30;;
49820;SDS011;36893;52.520;13.450;2022-12-05T23:22:32;7.67;;;2.63;;
49820;SDS011;36893;52.520;13.450;2022-12-05T23:32:33;8.07;;;2.88;;
49820;SDS011;36893;52.520;13.450;2022-12-05T23:42:34;7.07;;;2.80;;
49820;SDS011;36893;52.520;13.450;2022-12-05T23:52:35;5.17;;;2.40;;
